createdAt,value
2022-09-13T00:00:03.583Z,5.80
2022-09-13T00:02:31.410Z,5.18
2022-09-13T00:04:59.401Z,5.45
2022-09-13T00:07:27.150Z,5.70
2022-09-13T00:09:54.943Z,5.43
2022-09-13T00:12:24.066Z,5.38
2022-09-13T00:14:51.831Z,5.72
2022-09-13T00:17:19.690Z,5.28
2022-09-13T00:19:48.040Z,4.78
2022-09-13T00:22:15.896Z,5.60
2022-09-13T00:24:43.807Z,5.55
2022-09-13T00:27:12.924Z,6.20
2022-09-13T00:29:42.156Z,6.28
2022-09-13T00:32:10.039Z,6.88
2022-09-13T00:34:37.799Z,5.38
2022-09-13T00:37:06.149Z,5.07
2022-09-13T00:39:33.887Z,5.03
2022-09-13T00:42:01.716Z,5.03
2022-09-13T00:44:51.000Z,5.07
2022-09-13T00:47:34.274Z,5.18
2022-09-13T00:50:07.912Z,4.93
2022-09-13T00:52:37.179Z,4.93
2022-09-13T00:55:12.019Z,4.82
2022-09-13T00:57:42.029Z,5.88
2022-09-13T01:00:14.695Z,4.93
2022-09-13T01:02:45.590Z,4.70
2022-09-13T01:05:15.642Z,5.82
2022-09-13T01:07:43.792Z,5.55
2022-09-13T01:10:12.039Z,4.82
2022-09-13T01:12:48.719Z,5.95
2022-09-13T01:15:18.132Z,5.82
2022-09-13T01:17:46.141Z,5.45
2022-09-13T01:20:15.038Z,5.78
2022-09-13T01:23:19.747Z,7.40
2022-09-13T01:26:29.996Z,6.43
2022-09-13T01:29:28.138Z,5.80
2022-09-13T01:32:06.620Z,5.47
2022-09-13T01:34:46.202Z,5.20
2022-09-13T01:37:32.457Z,5.10
2022-09-13T01:40:17.406Z,5.63
2022-09-13T01:42:55.750Z,5.28
2022-09-13T01:45:38.179Z,5.35
2022-09-13T01:48:14.388Z,5.30
2022-09-13T01:50:46.964Z,5.22
2022-09-13T01:53:24.264Z,5.85
2022-09-13T01:56:00.274Z,6.03
2022-09-13T01:58:35.055Z,6.75
2022-09-13T02:01:08.899Z,6.65
2022-09-13T02:03:43.098Z,7.05
2022-09-13T02:06:15.370Z,6.38
2022-09-13T02:08:45.788Z,6.80
2022-09-13T02:11:15.327Z,8.15
2022-09-13T02:13:49.551Z,7.18
2022-09-13T02:16:21.550Z,7.85
2022-09-13T02:18:56.480Z,7.65
2022-09-13T02:21:29.792Z,8.02
2022-09-13T02:24:02.989Z,10.70
2022-09-13T02:26:32.656Z,8.65
2022-09-13T02:29:03.987Z,8.25
2022-09-13T02:31:37.307Z,7.95
2022-09-13T02:34:10.018Z,8.13
2022-09-13T02:36:41.580Z,7.88
2022-09-13T02:39:14.726Z,8.13
2022-09-13T02:41:49.592Z,7.32
2022-09-13T02:44:24.261Z,7.90
2022-09-13T02:47:21.507Z,7.45
2022-09-13T02:50:03.697Z,8.48
2022-09-13T02:52:41.950Z,8.35
2022-09-13T02:55:19.212Z,8.32
2022-09-13T02:57:55.024Z,8.10
2022-09-13T03:00:23.518Z,8.40
2022-09-13T03:02:53.732Z,7.63
2022-09-13T03:05:23.013Z,8.48
2022-09-13T03:07:51.704Z,8.13
2022-09-13T03:10:19.744Z,8.40
2022-09-13T03:13:12.028Z,8.80
2022-09-13T03:15:55.246Z,7.90
2022-09-13T03:18:38.885Z,9.40
2022-09-13T03:21:18.532Z,10.77
2022-09-13T03:23:54.417Z,8.05
2022-09-13T03:26:33.169Z,8.55
2022-09-13T03:29:14.695Z,8.68
2022-09-13T03:31:50.299Z,8.20
2022-09-13T03:34:26.712Z,8.65
2022-09-13T03:37:01.780Z,9.15
2022-09-13T03:39:37.579Z,8.95
2022-09-13T03:42:12.067Z,8.95
2022-09-13T03:44:43.402Z,8.00
2022-09-13T03:47:12.349Z,8.57
2022-09-13T03:49:40.855Z,9.23
2022-09-13T03:52:10.811Z,8.98
2022-09-13T03:54:39.612Z,8.93
2022-09-13T03:57:09.657Z,8.65
2022-09-13T03:59:38.903Z,8.48
2022-09-13T04:02:11.056Z,8.43
2022-09-13T04:04:39.627Z,8.20
2022-09-13T04:07:09.144Z,8.20
2022-09-13T04:09:36.887Z,7.97
2022-09-13T04:12:05.718Z,9.30
2022-09-13T04:14:33.587Z,11.47
2022-09-13T04:17:01.367Z,9.27
2022-09-13T04:19:29.357Z,11.57
2022-09-13T04:21:57.094Z,9.70
2022-09-13T04:24:29.268Z,9.13
2022-09-13T04:26:57.380Z,7.95
2022-09-13T04:29:26.664Z,8.02
2022-09-13T04:31:55.847Z,9.18
2022-09-13T04:34:24.214Z,8.60
2022-09-13T04:36:53.303Z,8.38
2022-09-13T04:39:21.488Z,7.43
2022-09-13T04:41:51.943Z,8.02
2022-09-13T04:44:20.725Z,7.80
2022-09-13T04:46:49.559Z,7.38
2022-09-13T04:49:18.024Z,8.02
2022-09-13T04:51:46.015Z,7.97
2022-09-13T04:54:16.226Z,8.20
2022-09-13T04:56:44.795Z,8.35
2022-09-13T04:59:14.712Z,8.55
2022-09-13T05:01:42.737Z,8.20
2022-09-13T05:04:11.332Z,6.65
2022-09-13T05:06:39.481Z,7.28
2022-09-13T05:09:07.679Z,8.43
2022-09-13T05:11:35.628Z,7.05
2022-09-13T05:14:03.964Z,8.38
2022-09-13T05:16:34.734Z,8.93
2022-09-13T05:19:03.038Z,9.00
2022-09-13T05:21:31.782Z,8.70
2022-09-13T05:24:00.303Z,7.93
2022-09-13T05:26:31.177Z,8.13
2022-09-13T05:28:59.361Z,9.52
2022-09-13T05:31:30.461Z,9.57
2022-09-13T05:34:02.338Z,9.45
2022-09-13T05:36:30.625Z,10.73
2022-09-13T05:39:25.918Z,10.07
2022-09-13T05:41:46.953Z,10.25
2022-09-13T05:44:15.136Z,10.13
2022-09-13T05:46:43.311Z,9.68
2022-09-13T05:49:13.729Z,9.73
2022-09-13T05:51:41.881Z,9.75
2022-09-13T05:54:12.049Z,9.55
2022-09-13T05:56:40.077Z,10.07
2022-09-13T05:59:08.852Z,10.93
2022-09-13T06:01:36.727Z,10.45
2022-09-13T06:04:04.830Z,11.10
2022-09-13T06:06:35.159Z,13.45
2022-09-13T06:09:02.925Z,12.82
2022-09-13T06:11:30.740Z,13.90
2022-09-13T06:13:58.539Z,17.20
2022-09-13T06:16:26.509Z,13.18
2022-09-13T06:18:54.464Z,14.45
2022-09-13T06:21:28.310Z,13.73
2022-09-13T06:23:58.628Z,13.20
2022-09-13T06:26:28.305Z,12.02
2022-09-13T06:28:58.259Z,13.52
2022-09-13T06:31:27.932Z,15.00
2022-09-13T06:34:00.328Z,15.90
2022-09-13T06:36:28.352Z,15.80
2022-09-13T06:38:56.956Z,16.25
2022-09-13T06:41:27.335Z,15.95
2022-09-13T06:43:56.265Z,18.02
2022-09-13T06:46:25.397Z,18.23
2022-09-13T06:48:54.008Z,16.45
2022-09-13T06:51:24.063Z,17.10
2022-09-13T06:53:52.755Z,18.92
2022-09-13T06:56:22.715Z,17.88
2022-09-13T06:58:53.640Z,17.98
2022-09-13T07:01:23.671Z,16.35
2022-09-13T07:03:54.338Z,18.65
2022-09-13T07:06:26.970Z,17.40
2022-09-13T07:08:55.699Z,17.70
2022-09-13T07:11:25.323Z,17.90
2022-09-13T07:13:56.250Z,22.23
2022-09-13T07:16:26.949Z,16.42
2022-09-13T07:18:56.447Z,23.63
2022-09-13T07:21:24.970Z,18.23
2022-09-13T07:23:54.156Z,17.83
2022-09-13T07:26:22.964Z,17.27
2022-09-13T07:28:53.137Z,16.58
2022-09-13T07:31:23.979Z,16.90
2022-09-13T07:33:56.227Z,17.10
2022-09-13T07:36:24.389Z,17.27
2022-09-13T07:38:52.560Z,16.20
2022-09-13T07:41:22.181Z,16.70
2022-09-13T07:43:51.801Z,15.85
2022-09-13T07:46:23.325Z,13.85
2022-09-13T07:48:53.849Z,14.23
2022-09-13T07:51:23.726Z,13.75
2022-09-13T07:53:57.097Z,12.27
2022-09-13T07:56:27.588Z,10.45
2022-09-13T07:58:56.181Z,10.48
2022-09-13T08:01:27.565Z,9.25
2022-09-13T08:03:56.770Z,7.68
2022-09-13T08:06:25.767Z,7.90
2022-09-13T08:08:53.738Z,6.57
2022-09-13T08:11:23.219Z,5.70
2022-09-13T08:13:52.895Z,5.47
2022-09-13T08:16:22.035Z,6.07
2022-09-13T08:18:53.808Z,7.40
2022-09-13T08:21:22.239Z,5.28
2022-09-13T08:23:50.186Z,5.45
2022-09-13T08:26:18.271Z,5.13
2022-09-13T08:28:46.156Z,4.75
2022-09-13T08:31:17.061Z,5.32
2022-09-13T08:33:47.870Z,4.15
2022-09-13T08:36:18.144Z,4.10
2022-09-13T08:38:49.679Z,3.90
2022-09-13T08:41:33.880Z,4.10
2022-09-13T08:44:07.138Z,3.60
2022-09-13T08:46:38.612Z,3.03
2022-09-13T08:49:11.908Z,3.70
2022-09-13T08:51:48.837Z,3.78
2022-09-13T08:54:18.243Z,2.85
2022-09-13T08:56:52.702Z,2.67
2022-09-13T08:59:35.940Z,2.65
2022-09-13T09:02:18.723Z,2.28
2022-09-13T09:04:51.764Z,2.00
2022-09-13T09:07:24.788Z,2.30
2022-09-13T09:09:57.095Z,2.22
2022-09-13T09:12:32.492Z,2.55
2022-09-13T09:15:05.558Z,1.98
2022-09-13T09:17:47.925Z,2.70
2022-09-13T09:20:26.755Z,2.28
2022-09-13T09:22:56.643Z,2.40
2022-09-13T09:25:27.045Z,1.73
2022-09-13T09:27:55.243Z,1.75
2022-09-13T09:30:23.033Z,1.80
2022-09-13T09:33:02.386Z,1.88
2022-09-13T09:35:43.845Z,1.33
2022-09-13T09:38:33.017Z,1.58
2022-09-13T09:41:05.643Z,1.15
2022-09-13T09:43:37.598Z,1.10
2022-09-13T09:46:09.934Z,0.93
2022-09-13T09:48:43.890Z,0.95
2022-09-13T09:51:13.987Z,0.95
2022-09-13T09:53:47.302Z,1.15
2022-09-13T09:56:24.828Z,1.00
2022-09-13T09:58:54.356Z,1.08
2022-09-13T10:01:26.033Z,1.08
2022-09-13T10:03:59.304Z,1.17
2022-09-13T10:06:30.028Z,1.13
2022-09-13T10:09:05.580Z,1.10
2022-09-13T10:11:42.639Z,1.20
2022-09-13T10:14:30.065Z,1.20
2022-09-13T10:17:06.282Z,1.17
2022-09-13T10:19:34.542Z,1.00
2022-09-13T10:22:05.654Z,1.40
2022-09-13T10:24:35.235Z,1.20
2022-09-13T10:27:04.022Z,1.20
2022-09-13T10:29:33.072Z,1.02
2022-09-13T10:32:08.800Z,1.35
2022-09-13T10:34:38.319Z,0.90
2022-09-13T10:37:13.886Z,0.90
2022-09-13T10:39:57.852Z,0.80
2022-09-13T10:42:28.130Z,0.98
2022-09-13T10:44:58.453Z,0.70
2022-09-13T10:47:31.146Z,1.00
2022-09-13T10:50:05.872Z,1.00
2022-09-13T10:52:35.839Z,1.00
2022-09-13T10:55:28.759Z,0.90
2022-09-13T10:58:13.466Z,0.88
2022-09-13T11:00:49.069Z,1.00
2022-09-13T11:03:31.419Z,0.98
2022-09-13T11:06:06.301Z,0.90
2022-09-13T11:08:46.899Z,1.10
2022-09-13T11:11:24.029Z,1.00
2022-09-13T11:14:06.291Z,1.42
2022-09-13T11:16:46.221Z,1.45
2022-09-13T11:19:57.063Z,1.30
2022-09-13T11:22:47.243Z,1.10
2022-09-13T11:25:28.380Z,1.20
2022-09-13T11:28:06.212Z,1.08
2022-09-13T11:30:39.608Z,1.20
2022-09-13T11:33:25.679Z,0.90
2022-09-13T11:36:19.642Z,0.80
2022-09-13T11:38:58.960Z,1.00
2022-09-13T11:41:36.867Z,0.82
2022-09-13T11:44:24.344Z,1.10
2022-09-13T11:47:00.790Z,1.13
2022-09-13T11:49:58.870Z,1.05
2022-09-13T11:52:38.603Z,1.02
2022-09-13T11:55:18.724Z,0.95
2022-09-13T11:57:50.742Z,1.40
2022-09-13T12:00:25.667Z,1.25
2022-09-13T12:03:04.796Z,1.33
2022-09-13T12:05:36.719Z,1.20
2022-09-13T12:08:11.866Z,1.20
2022-09-13T12:10:46.901Z,1.08
2022-09-13T12:13:21.334Z,1.15
2022-09-13T12:15:54.671Z,1.20
2022-09-13T12:18:27.411Z,1.15
2022-09-13T12:20:58.525Z,1.42
2022-09-13T12:23:30.914Z,1.10
2022-09-13T12:26:03.214Z,0.98
2022-09-13T12:28:35.333Z,0.82
2022-09-13T12:31:10.517Z,1.00
2022-09-13T12:33:41.631Z,1.17
2022-09-13T12:36:51.012Z,1.30
2022-09-13T12:39:39.255Z,1.02
2022-09-13T12:42:46.027Z,0.98
2022-09-13T12:45:26.937Z,1.10
2022-09-13T12:48:19.131Z,1.23
2022-09-13T12:51:00.272Z,0.98
2022-09-13T12:53:57.926Z,1.20
2022-09-13T12:56:48.296Z,0.80
2022-09-13T12:59:44.747Z,1.02
2022-09-13T13:02:32.767Z,1.05
2022-09-13T13:05:06.358Z,0.73
2022-09-13T13:07:37.977Z,1.00
2022-09-13T13:10:06.812Z,1.35
2022-09-13T13:12:37.675Z,0.90
2022-09-13T13:15:08.049Z,1.00
2022-09-13T13:17:48.192Z,0.93
2022-09-13T13:20:45.878Z,0.90
2022-09-13T13:23:20.467Z,0.98
2022-09-13T13:26:09.752Z,1.20
2022-09-13T13:29:05.865Z,1.10
2022-09-13T13:31:42.353Z,1.17
2022-09-13T13:34:33.436Z,1.02
2022-09-13T13:37:05.579Z,0.73
2022-09-13T13:39:39.891Z,1.00
2022-09-13T13:42:25.520Z,1.05
2022-09-13T13:45:20.318Z,0.80
2022-09-13T13:48:09.806Z,1.20
2022-09-13T13:51:13.629Z,0.95
2022-09-13T13:53:45.905Z,1.05
2022-09-13T13:56:36.263Z,1.08
2022-09-13T13:59:13.188Z,0.90
2022-09-13T14:01:47.359Z,0.90
2022-09-13T14:04:48.558Z,0.77
2022-09-13T14:07:30.333Z,0.93
2022-09-13T14:10:04.986Z,0.88
2022-09-13T14:12:51.077Z,1.05
2022-09-13T14:15:31.068Z,1.02
2022-09-13T14:18:27.836Z,0.90
2022-09-13T14:21:03.861Z,1.02
2022-09-13T14:23:33.317Z,0.95
2022-09-13T14:26:02.735Z,1.02
2022-09-13T14:28:30.641Z,1.10
2022-09-13T14:31:00.603Z,0.80
2022-09-13T14:33:31.983Z,1.00
2022-09-13T14:36:02.971Z,0.93
2022-09-13T14:38:35.610Z,0.80
2022-09-13T14:41:15.141Z,0.85
2022-09-13T14:43:44.051Z,1.05
2022-09-13T14:46:16.587Z,1.25
2022-09-13T14:48:51.344Z,0.80
2022-09-13T14:51:24.235Z,1.00
2022-09-13T14:53:54.787Z,0.77
2022-09-13T14:56:32.484Z,0.70
2022-09-13T14:59:02.455Z,0.80
2022-09-13T15:01:34.599Z,0.85
2022-09-13T15:04:05.578Z,0.80
2022-09-13T15:06:35.490Z,0.98
2022-09-13T15:09:16.517Z,0.90
2022-09-13T15:11:58.569Z,1.00
2022-09-13T15:14:29.043Z,0.90
2022-09-13T15:17:02.470Z,0.98
2022-09-13T15:19:38.623Z,0.90
2022-09-13T15:22:19.978Z,0.93
2022-09-13T15:24:50.774Z,1.10
2022-09-13T15:27:29.932Z,1.10
2022-09-13T15:30:00.379Z,1.13
2022-09-13T15:32:34.009Z,0.80
2022-09-13T15:35:02.916Z,1.13
2022-09-13T15:37:38.659Z,0.98
2022-09-13T15:40:19.519Z,0.70
2022-09-13T15:42:50.362Z,0.98
2022-09-13T15:45:19.685Z,0.65
2022-09-13T15:47:48.869Z,0.90
2022-09-13T15:50:26.658Z,0.80
2022-09-13T15:52:55.084Z,0.80
2022-09-13T15:55:23.348Z,0.65
2022-09-13T15:57:52.580Z,0.80
2022-09-13T16:00:24.397Z,1.20
2022-09-13T16:02:52.770Z,1.00
2022-09-13T16:05:21.071Z,0.80
2022-09-13T16:07:49.000Z,1.00
2022-09-13T16:10:19.074Z,1.17
2022-09-13T16:12:47.251Z,1.17
2022-09-13T16:15:16.909Z,0.85
2022-09-13T16:17:44.729Z,0.70
2022-09-13T16:20:14.723Z,1.10
2022-09-13T16:22:42.955Z,0.82
2022-09-13T16:25:12.935Z,0.80
2022-09-13T16:27:40.986Z,1.13
2022-09-13T16:30:11.589Z,1.15
2022-09-13T16:32:41.676Z,1.02
2022-09-13T16:35:11.160Z,0.93
2022-09-13T16:37:39.750Z,0.80
2022-09-13T16:40:09.460Z,1.00
2022-09-13T16:42:38.133Z,0.90
2022-09-13T16:45:06.819Z,0.85
2022-09-13T16:47:35.145Z,0.70
2022-09-13T16:50:04.498Z,1.30
2022-09-13T16:52:32.699Z,0.80
2022-09-13T16:55:00.870Z,0.98
2022-09-13T16:57:29.208Z,1.35
2022-09-13T16:59:58.999Z,1.08
2022-09-13T17:02:27.880Z,0.90
2022-09-13T17:04:55.867Z,1.02
2022-09-13T17:07:25.175Z,0.90
2022-09-13T17:09:52.950Z,1.05
2022-09-13T17:12:21.145Z,1.40
2022-09-13T17:14:50.568Z,0.70
2022-09-13T17:17:18.983Z,0.82
2022-09-13T17:19:46.928Z,1.10
2022-09-13T17:22:16.348Z,1.10
2022-09-13T17:24:45.947Z,1.10
2022-09-13T17:27:13.761Z,0.75
2022-09-13T17:29:41.575Z,0.85
2022-09-13T17:32:09.521Z,1.17
2022-09-13T17:34:37.908Z,1.00
2022-09-13T17:37:06.746Z,1.13
2022-09-13T17:39:34.735Z,1.10
2022-09-13T17:42:04.055Z,1.00
2022-09-13T17:44:31.885Z,0.85
2022-09-13T17:46:59.720Z,1.08
2022-09-13T17:49:27.447Z,0.93
2022-09-13T17:51:55.943Z,0.80
2022-09-13T17:54:23.799Z,1.42
2022-09-13T17:56:52.038Z,1.00
2022-09-13T17:59:22.994Z,0.93
2022-09-13T18:01:52.756Z,0.93
2022-09-13T18:04:23.037Z,1.30
2022-09-13T18:06:52.365Z,1.20
2022-09-13T18:09:20.629Z,0.75
2022-09-13T18:11:48.770Z,1.30
2022-09-13T18:14:18.794Z,1.08
2022-09-13T18:16:49.247Z,1.35
2022-09-13T18:19:46.334Z,1.02
2022-09-13T18:22:15.096Z,0.80
2022-09-13T18:24:42.906Z,1.10
2022-09-13T18:27:10.647Z,1.05
2022-09-13T18:29:38.428Z,1.23
2022-09-13T18:32:07.893Z,1.15
2022-09-13T18:34:35.678Z,0.90
2022-09-13T18:37:03.483Z,1.00
2022-09-13T18:39:31.531Z,1.17
2022-09-13T18:42:01.138Z,1.23
2022-09-13T18:44:30.277Z,0.90
2022-09-13T18:47:01.222Z,1.38
2022-09-13T18:49:30.720Z,1.05
2022-09-13T18:51:58.742Z,1.20
2022-09-13T18:54:26.847Z,1.17
2022-09-13T18:56:59.890Z,1.00
2022-09-13T18:59:30.536Z,1.20
2022-09-13T19:01:58.767Z,1.40
2022-09-13T19:04:27.197Z,1.23
2022-09-13T19:06:57.134Z,1.33
2022-09-13T19:09:26.283Z,1.27
2022-09-13T19:11:55.679Z,1.13
2022-09-13T19:14:27.226Z,1.23
2022-09-13T19:16:57.673Z,1.17
2022-09-13T19:19:26.527Z,1.33
2022-09-13T19:21:56.033Z,1.45
2022-09-13T19:24:25.461Z,1.10
2022-09-13T19:26:54.275Z,1.50
2022-09-13T19:29:24.334Z,1.30
2022-09-13T19:31:55.779Z,1.20
2022-09-13T19:34:25.144Z,1.00
2022-09-13T19:36:57.629Z,1.60
2022-09-13T19:39:30.110Z,1.30
2022-09-13T19:41:59.619Z,1.15
2022-09-13T19:44:28.264Z,1.30
2022-09-13T19:47:23.797Z,1.35
2022-09-13T19:49:44.024Z,1.40
2022-09-13T19:52:11.800Z,1.30
2022-09-13T19:54:40.981Z,1.85
2022-09-13T19:57:09.442Z,1.20
2022-09-13T19:59:37.202Z,1.65
2022-09-13T20:02:06.006Z,0.90
2022-09-13T20:04:34.006Z,1.50
2022-09-13T20:07:01.825Z,1.23
2022-09-13T20:09:31.479Z,1.63
2022-09-13T20:12:01.072Z,1.50
2022-09-13T20:14:28.866Z,1.40
2022-09-13T20:16:57.208Z,1.50
2022-09-13T20:19:44.811Z,1.50
2022-09-13T20:22:12.751Z,1.20
2022-09-13T20:24:40.515Z,1.25
2022-09-13T20:27:10.085Z,1.25
2022-09-13T20:29:37.840Z,1.20
2022-09-13T20:32:05.691Z,1.52
2022-09-13T20:34:35.067Z,1.02
2022-09-13T20:37:02.813Z,1.33
2022-09-13T20:39:30.619Z,2.05
2022-09-13T20:41:58.596Z,1.27
2022-09-13T20:44:28.047Z,1.50
2022-09-13T20:46:56.039Z,1.15
2022-09-13T20:49:23.922Z,1.10
2022-09-13T20:51:52.066Z,1.10
2022-09-13T20:54:19.914Z,1.55
2022-09-13T20:56:47.866Z,1.50
2022-09-13T20:59:15.966Z,1.63
2022-09-13T21:01:45.782Z,1.38
2022-09-13T21:04:14.086Z,1.30
2022-09-13T21:07:03.428Z,1.23
2022-09-13T21:09:32.426Z,1.52
2022-09-13T21:12:01.795Z,1.63
2022-09-13T21:14:33.913Z,1.88
2022-09-13T21:17:07.611Z,1.75
2022-09-13T21:19:35.718Z,1.75
2022-09-13T21:22:04.116Z,1.60
2022-09-13T21:24:32.524Z,1.80
2022-09-13T21:27:00.347Z,2.45
2022-09-13T21:29:28.559Z,1.50
2022-09-13T21:31:56.788Z,1.48
2022-09-13T21:34:27.226Z,1.63
2022-09-13T21:36:55.404Z,2.15
2022-09-13T21:39:23.807Z,1.38
2022-09-13T21:41:51.874Z,2.10
2022-09-13T21:44:19.671Z,1.80
2022-09-13T21:46:47.526Z,1.27
2022-09-13T21:49:15.747Z,1.80
2022-09-13T21:51:46.878Z,1.88
2022-09-13T21:54:17.103Z,1.58
2022-09-13T21:56:50.659Z,1.70
2022-09-13T21:59:20.858Z,1.55
2022-09-13T22:01:51.264Z,1.50
2022-09-13T22:04:21.032Z,1.80
2022-09-13T22:06:53.416Z,2.03
2022-09-13T22:09:22.917Z,1.73
2022-09-13T22:11:51.214Z,1.70
2022-09-13T22:14:21.821Z,1.85
2022-09-13T22:16:50.752Z,1.70
2022-09-13T22:19:20.916Z,1.80
2022-09-13T22:21:53.541Z,1.52
2022-09-13T22:24:23.243Z,1.75
2022-09-13T22:26:52.907Z,1.30
2022-09-13T22:29:22.023Z,1.40
2022-09-13T22:31:52.099Z,1.35
2022-09-13T22:34:21.548Z,1.55
2022-09-13T22:36:50.964Z,1.40
2022-09-13T22:39:19.218Z,1.70
2022-09-13T22:41:47.180Z,1.30
2022-09-13T22:44:15.418Z,1.73
2022-09-13T22:46:44.627Z,1.75
2022-09-13T22:49:14.608Z,1.30
2022-09-13T22:51:44.808Z,1.42
2022-09-13T22:54:14.483Z,1.30
2022-09-13T22:56:42.884Z,1.70
2022-09-13T22:59:13.773Z,1.63
2022-09-13T23:01:41.914Z,1.75
2022-09-13T23:04:09.770Z,1.10
2022-09-13T23:06:38.123Z,1.35
2022-09-13T23:09:08.135Z,1.90
2022-09-13T23:11:39.441Z,1.42
2022-09-13T23:14:09.740Z,1.65
2022-09-13T23:16:40.125Z,1.83
2022-09-13T23:19:08.763Z,1.98
2022-09-13T23:21:38.643Z,1.65
2022-09-13T23:24:08.917Z,1.70
2022-09-13T23:26:38.267Z,1.58
2022-09-13T23:29:06.421Z,1.65
2022-09-13T23:31:38.722Z,1.77
2022-09-13T23:34:08.381Z,1.35
2022-09-13T23:36:39.849Z,1.77
2022-09-13T23:39:09.544Z,1.42
2022-09-13T23:41:38.808Z,1.48
2022-09-13T23:44:06.719Z,1.90
2022-09-13T23:46:34.808Z,2.10
2022-09-13T23:49:02.838Z,1.75
2022-09-13T23:51:30.752Z,1.58
2022-09-13T23:54:00.803Z,1.38
2022-09-13T23:56:30.594Z,1.60
2022-09-13T23:59:01.650Z,1.70
